Latest Coastal Weather Observations for Kingfish B

IDV60701

Issued at 10:21 am EST Monday 16 September 2019 (issued every 10 minutes, with the page automatically refreshed every 10 minutes)

About coastal observations | Map of coastal stations | Coastal observations for VIC | Marine services | Other Formats
Station Details ID: 400139 Name: KINGFISH B (PLATFORM) Lat: -38.60 Lon: 148.19 Height: 31.4 m
Data from the previous 72 hours. | See also: Recent months for locations in Victoria
Date/Time
EST
Wind Sea
Height
m
Swell Vis
km
Cloud Weather Temp
°C
Press
hPa
Rain since
9am
mm
Dir  Spd
kts
Gust
kts
Height
m
Period
s
Dir
16/06:20am SW 30 35 - - - - - - - 11.8 1015.3 -
16/05:00am SW 29 34 - - - - - - - 11.8 1013.7 -
16/04:40am WSW 29 37 - - - - - - - 11.7 1013.7 -
16/04:20am SW 29 33 - - - - - - - 11.6 1013.7 -
16/04:10am SW 32 37 - - - - - - - 11.5 1013.7 -
16/04:00am SW 32 38 - - - - - - - 11.4 1013.2 -
16/03:50am SW 33 37 - - - - - - - 11.2 1013.0 -
16/03:40am SW 30 36 - - - - - - - 11.3 1013.0 -
16/03:30am SW 28 37 - - - - - - - 11.4 1012.9 -
16/03:20am SW 26 30 - - - - - - - 11.5 1012.4 -
16/03:00am SW 27 32 - - - - - - - 11.5 1012.1 -
16/02:50am SW 26 32 - - - - - - - 11.4 1012.1 -
16/02:40am SW 29 35 - - - - - - - 11.4 1012.1 -
16/02:20am SW 30 38 - - - - - - - 11.4 1011.8 -
16/02:10am SW 27 31 - - - - - - - 11.4 1011.8 -
16/02:00am SW 25 31 - - - - - - - 11.6 1011.7 -
16/01:50am SW 24 30 - - - - - - - 11.5 1011.5 -
16/01:40am SW 26 31 - - - - - - - 11.4 1011.4 -
16/01:20am SW 26 31 - - - - - - - 11.5 1011.9 -
16/01:10am SW 27 32 - - - - - - - 12.1 1012.0 -
16/12:40am SW 25 29 - - - - - - - 13.4 1012.4 -
16/12:30am SW 24 30 - - - - - - - 14.7 1011.9 -
16/12:20am W 26 30 - - - - - - - 15.1 1011.4 -
 
Date/Time
EST
Wind Sea
Height
m
Swell Vis
km
Cloud Weather Temp
°C
Press
hPa
Rain since
9am
mm
Dir  Spd
kts
Gust
kts
Height
m
Period
s
Dir
15/11:00pm W 23 29 - - - - - - - 15.9 1011.7 -
15/10:30pm WNW 24 29 - - - - - - - 15.6 1011.6 -
15/10:20pm WNW 26 32 - - - - - - - 15.5 1011.5 -
15/10:10pm WNW 26 31 - - - - - - - 15.5 1011.6 -
15/10:00pm WNW 27 32 - - - - - - - 15.4 1011.7 -
15/09:50pm WNW 25 33 - - - - - - - 15.4 1011.8 -
15/09:40pm WNW 24 31 - - - - - - - 15.4 1011.8 -
15/09:30pm WNW 25 29 - - - - - - - 15.5 1011.7 -
15/09:20pm WNW 27 33 - - - - - - - 15.4 1011.8 -
15/09:10pm WNW 27 32 - - - - - - - 15.4 1012.0 -
15/09:00pm WNW 27 33 - - - - - - - 15.4 1012.2 -
15/08:50pm WNW 28 35 - - - - - - - 15.5 1012.3 -
15/08:40pm WNW 27 32 - - - - - - - 15.6 1012.5 -
15/08:30pm WNW 29 34 - - - - - - - 15.7 1013.1 -
15/08:20pm WNW 28 35 - - - - - - - 15.9 1013.3 -
15/07:30pm WNW 28 34 - - - - - - - 16.3 1013.6 -
15/07:20pm WNW 28 35 - - - - - - - 16.4 1013.4 -
15/07:10pm WNW 28 34 - - - - - - - 16.4 1013.1 -
15/07:00pm WNW 27 32 - - - - - - - 16.4 1013.0 -
15/06:50pm WNW 24 29 - - - - - - - 16.4 1012.8 -
15/06:40pm WNW 25 29 - - - - - - - 16.4 1012.7 -
15/06:30pm WNW 24 28 - - - - - - - 16.4 1012.6 -
15/06:20pm WNW 25 31 - - - - - - - 16.4 1012.7 -
15/06:10pm WNW 25 30 - - - - - - - 16.4 1012.9 -
15/06:00pm W 24 29 - - - - - - - 16.3 1013.3 -
15/05:50pm W 23 28 - - - - - - - 16.4 1013.4 -
15/05:40pm W 23 28 - - - - - - - 16.5 1013.5 -
15/05:30pm W 24 28 - - - - - - - 16.6 1013.6 -
15/05:20pm W 23 30 - - - - - - - 16.8 1013.7 -
15/05:10pm W 21 24 - - - - - - - 17.2 1013.5 -
15/05:00pm WSW 23 28 - - - - - - - 17.4 1013.0 -
15/04:50pm WSW 23 28 - - - - - - - 17.6 1012.8 -
15/04:40pm W 21 26 - - - - - - - 17.7 1012.8 -
15/04:30pm W 15 22 - - - - - - - 17.5 1012.8 -
15/04:20pm WNW 9 13 - - - - - - - 17.2 1012.8 -
15/04:10pm NW 6 10 - - - - - - - 17.2 1012.7 -
15/04:00pm NNW 6 7 - - - - - - - 17.3 1012.7 -
15/03:30pm NNW 1 3 - - - - - - - 17.8 1012.3 -
15/03:10pm NNE 1 4 - - - - - - - 17.7 1012.4 -
15/02:50pm WSW 3 4 - - - - - - - 18.2 1012.7 -
15/02:40pm WSW 4 6 - - - - - - - 18.3 1012.6 -
15/02:30pm WSW 5 7 - - - - - - - 18.2 1012.7 -
15/02:20pm WSW 5 7 - - - - - - - 18.1 1012.6 -
15/02:10pm W 3 8 - - - - - - - 18.4 1012.7 -
15/02:00pm WSW 6 9 - - - - - - - 18.3 1012.7 -
15/01:50pm WNW 6 7 - - - - - - - 18.6 1012.8 -
15/01:40pm W 8 9 - - - - - - - 18.6 1012.7 -
15/01:00pm WNW 11 12 - - - - - - - 18.6 1013.1 -
15/12:50pm WNW 11 12 - - - - - - - 18.2 1013.0 -
15/12:40pm WNW 13 14 - - - - - - - 18.0 1013.1 -
15/12:20pm WNW 14 16 - - - - - - - 17.8 1013.3 -
15/12:10pm WNW 13 14 - - - - - - - 17.9 1013.6 -
15/12:00pm WNW 14 16 - - - - - - - 17.8 1013.7 -
15/11:50am WNW 15 17 - - - - - - - 17.8 1013.7 -
15/11:40am NW 14 16 - - - - - - - 17.8 1013.9 -
15/11:30am NW 15 16 - - - - - - - 17.9 1014.0 -
15/11:20am WNW 14 16 - - - - - - - 18.0 1014.2 -
15/11:10am WNW 15 16 - - - - - - - 17.7 1014.3 -
15/11:00am NW 14 16 - - - - - - - 17.5 1014.3 -
15/10:50am NW 15 18 - - - - - - - 17.4 1014.6 -
15/10:40am NW 16 19 - - - - - - - 17.2 1014.8 -
15/10:30am NW 14 16 - - - - - - - 17.0 1015.0 -
15/10:00am NW 14 17 - - - - - - - 16.7 1015.4 -
15/09:50am NW 14 17 - - - - - - - 16.8 1015.6 -
15/09:40am NW 14 16 - - - - - - - 16.8 1015.7 -
15/09:30am NW 15 17 - - - - - - - 16.7 1015.9 -
15/09:20am NW 16 18 - - - - - - - 16.6 1016.1 -
15/09:10am NW 15 17 - - - - - - - 16.6 1016.2 -
15/09:00am WNW 14 17 - - - - - - - 16.4 1016.3 -
15/08:50am WNW 14 16 - - - - - - - 16.4 1016.4 -
15/08:30am WNW 14 17 - - - - - - - 16.2 1016.5 -
15/08:20am WNW 13 15 - - - - - - - 16.1 1016.5 -
15/08:00am WNW 16 19 - - - - - - - 15.7 1016.6 -
15/07:50am WNW 16 20 - - - - - - - 15.3 1016.6 -
15/07:40am WNW 17 22 - - - - - - - 15.2 1016.5 -
15/07:30am WNW 17 21 - - - - - - - 15.0 1016.4 -
15/07:20am WNW 16 19 - - - - - - - 15.0 1016.4 -
15/07:10am NW 17 19 - - - - - - - 15.0 1016.3 -
15/07:00am WNW 16 19 - - - - - - - 15.1 1016.3 -
15/06:50am WNW 17 20 - - - - - - - 15.1 1016.3 -
15/06:40am WNW 17 21 - - - - - - - 15.0 1016.2 -
15/06:30am WNW 19 25 - - - - - - - 14.8 1016.4 -
15/06:20am WNW 19 22 - - - - - - - 14.9 1016.4 -
15/06:10am WNW 20 24 - - - - - - - 15.0 1016.5 -
15/05:50am WNW 24 29 - - - - - - - 15.0 1016.4 -
15/05:30am WNW 21 25 - - - - - - - 14.7 1016.4 -
15/05:20am WNW 21 27 - - - - - - - 14.7 1016.3 -
15/05:10am WNW 21 25 - - - - - - - 14.5 1016.4 -
15/05:00am WNW 18 22 - - - - - - - 14.5 1016.5 -
15/04:50am WNW 17 20 - - - - - - - 14.6 1016.6 -
15/04:40am WNW 17 19 - - - - - - - 14.7 1016.5 -
15/04:30am WNW 18 22 - - - - - - - 14.5 1016.3 -
15/04:20am WNW 18 21 - - - - - - - 14.4 1016.4 -
15/04:10am WNW 16 19 - - - - - - - 14.4 1016.4 -
15/04:00am WNW 17 21 - - - - - - - 14.4 1016.4 -
15/03:50am WNW 18 20 - - - - - - - 14.5 1016.4 -
15/03:40am WNW 19 24 - - - - - - - 14.6 1016.5 -
15/03:30am WNW 19 23 - - - - - - - 14.6 1016.5 -
15/03:20am WNW 17 21 - - - - - - - 14.5 1016.5 -
15/03:10am NW 17 21 - - - - - - - 14.5 1016.6 -
15/03:00am WNW 19 24 - - - - - - - 14.6 1016.6 -
15/02:50am WNW 18 24 - - - - - - - 14.4 1016.6 -
15/02:40am WNW 16 18 - - - - - - - 14.3 1016.8 -
15/02:30am NW 15 18 - - - - - - - 14.2 1016.9 -
15/02:20am NW 14 17 - - - - - - - 14.1 1016.9 -
15/02:10am NW 13 16 - - - - - - - 14.0 1017.0 -
15/02:00am NW 14 17 - - - - - - - 13.9 1017.2 -
15/01:50am NW 12 13 - - - - - - - 13.8 1017.1 -
15/01:40am NW 11 12 - - - - - - - 13.8 1017.2 -
15/01:20am NW 12 14 - - - - - - - 13.7 1017.5 -
15/01:10am NW 13 14 - - - - - - - 13.7 1017.6 -
15/01:00am WNW 12 13 - - - - - - - 13.6 1018.0 -
15/12:50am WNW 12 16 - - - - - - - 13.5 1018.2 -
15/12:40am WNW 11 15 - - - - - - - 13.4 1018.2 -
15/12:30am NW 11 14 - - - - - - - 13.4 1018.3 -
15/12:20am NW 10 12 - - - - - - - 13.4 1018.6 -
15/12:10am WNW 10 11 - - - - - - - 13.3 1018.7 -
15/12:00am WNW 10 11 - - - - - - - 13.1 1018.9 -
 
Date/Time
EST
Wind Sea
Height
m
Swell Vis
km
Cloud Weather Temp
°C
Press
hPa
Rain since
9am
mm
Dir  Spd
kts
Gust
kts
Height
m
Period
s
Dir
14/11:50pm WNW 9 10 - - - - - - - 13.1 1019.0 -
14/11:40pm WNW 8 9 - - - - - - - 13.1 1019.2 -
14/11:30pm WNW 9 10 - - - - - - - 13.0 1019.2 -
14/11:20pm WNW 7 9 - - - - - - - 13.0 1019.2 -
14/11:10pm WNW 8 9 - - - - - - - 12.9 1019.1 -
14/11:00pm NW 8 9 - - - - - - - 13.0 1019.1 -
14/10:50pm NW 8 9 - - - - - - - 12.9 1019.3 -
14/10:40pm NW 8 9 - - - - - - - 12.7 1019.4 -
14/10:30pm NW 8 9 - - - - - - - 12.7 1019.5 -
14/10:20pm NW 8 10 - - - - - - - 12.7 1019.5 -
14/10:10pm NW 9 10 - - - - - - - 12.6 1019.6 -
14/10:00pm NW 9 10 - - - - - - - 12.6 1019.7 -
14/09:50pm NW 9 10 - - - - - - - 12.5 1019.7 -
14/09:40pm NNW 9 10 - - - - - - - 12.5 1019.8 -
14/09:30pm NNW 9 10 - - - - - - - 12.5 1019.9 -
14/09:20pm NW 8 9 - - - - - - - 12.4 1020.1 -
14/09:10pm NW 8 10 - - - - - - - 12.5 1020.1 -
14/09:00pm NW 9 10 - - - - - - - 12.4 1020.2 -
14/08:50pm NW 9 10 - - - - - - - 12.3 1020.2 -
14/08:40pm NW 8 10 - - - - - - - 12.3 1020.2 -
14/08:30pm NW 8 10 - - - - - - - 12.2 1020.3 -
14/08:20pm NW 8 9 - - - - - - - 12.1 1020.3 -
14/08:10pm NW 7 8 - - - - - - - 12.0 1020.5 -
14/07:50pm NW 6 7 - - - - - - - 12.0 1020.6 -
14/07:40pm NW 5 6 - - - - - - - 11.9 1020.6 -
14/07:30pm W 4 5 - - - - - - - 12.0 1020.6 -
14/07:20pm W 5 6 - - - - - - - 12.0 1020.7 -
14/07:10pm W 5 7 - - - - - - - 12.0 1020.7 -
14/07:00pm WSW 6 7 - - - - - - - 11.8 1020.7 -
14/06:50pm WSW 7 8 - - - - - - - 11.9 1020.9 -
14/06:40pm WSW 6 8 - - - - - - - 11.9 1020.9 -
14/06:30pm SW 7 9 - - - - - - - 12.0 1021.1 -
14/06:20pm SW 8 10 - - - - - - - 12.0 1021.3 -
14/06:10pm SW 9 11 - - - - - - - 12.1 1021.2 -
14/06:00pm SW 10 13 - - - - - - - 12.1 1021.3 -
14/05:50pm SW 11 13 - - - - - - - 12.0 1021.4 -
14/05:40pm SW 12 13 - - - - - - - 12.0 1021.2 -
14/05:30pm SW 12 14 - - - - - - - 12.0 1021.3 -
14/05:20pm SW 14 16 - - - - - - - 12.1 1021.4 -
14/05:10pm SW 14 16 - - - - - - - 12.3 1021.3 -
14/05:00pm SW 14 16 - - - - - - - 12.4 1021.3 -
14/04:50pm SW 15 17 - - - - - - - 12.4 1021.3 -
14/04:40pm SW 16 18 - - - - - - - 12.4 1021.4 -
14/04:30pm SW 15 18 - - - - - - - 12.5 1021.5 -
14/04:20pm SW 14 16 - - - - - - - 12.5 1021.5 -
14/04:10pm SW 15 18 - - - - - - - 12.5 1021.5 -
14/04:00pm SW 16 18 - - - - - - - 12.5 1021.6 -
14/03:50pm SW 16 18 - - - - - - - 12.6 1021.7 -
14/03:40pm SW 16 18 - - - - - - - 12.6 1021.8 -
14/03:30pm SW 16 19 - - - - - - - 12.5 1021.9 -
14/03:20pm SW 16 19 - - - - - - - 12.6 1022.0 -
14/03:10pm SW 16 18 - - - - - - - 12.6 1021.9 -
14/03:00pm SW 16 18 - - - - - - - 12.7 1021.7 -
14/02:50pm SW 15 17 - - - - - - - 12.8 1021.6 -
14/02:40pm SW 16 19 - - - - - - - 12.8 1021.5 -
14/02:30pm SW 17 20 - - - - - - - 12.8 1021.6 -
14/02:20pm SW 17 19 - - - - - - - 12.8 1021.6 -
14/02:10pm SW 16 18 - - - - - - - 12.8 1021.7 -
14/02:00pm SW 16 19 - - - - - - - 12.9 1021.8 -
14/01:50pm SW 15 18 - - - - - - - 12.9 1022.0 -
14/01:40pm SW 16 19 - - - - - - - 13.0 1022.1 -
14/01:30pm SW 17 21 - - - - - - - 13.1 1022.0 -
14/01:10pm SW 16 20 - - - - - - - 13.1 1022.1 -
14/01:00pm SW 16 19 - - - - - - - 13.1 1022.2 -
14/12:50pm SW 17 20 - - - - - - - 13.1 1022.2 -
14/12:40pm SW 17 21 - - - - - - - 13.2 1022.3 -
14/12:30pm SW 17 22 - - - - - - - 13.3 1022.3 -
14/12:10pm WSW 19 22 - - - - - - - 13.4 1022.3 -
14/12:00pm WSW 20 23 - - - - - - - 13.4 1022.3 -
14/11:50am WSW 21 24 - - - - - - - 13.5 1022.3 -
14/11:20am WSW 22 26 - - - - - - - 13.8 1022.6 -
14/11:10am WSW 23 26 - - - - - - - 13.7 1022.5 -
14/11:00am WSW 22 25 - - - - - - - 13.8 1022.6 -
14/10:30am WSW 21 25 - - - - - - - 14.2 1023.0 -
14/10:20am WSW 20 24 - - - - - - - 14.2 1023.3 -
14/10:10am WSW 21 26 - - - - - - - 14.2 1023.3 -
14/10:00am SW 23 27 - - - - - - - 14.3 1023.0 -
14/09:50am WSW 23 27 - - - - - - - 14.4 1022.9 -
14/09:40am SW 21 25 - - - - - - - 14.3 1023.4 -
14/09:20am WSW 22 27 - - - - - - - 14.3 1023.4 -
14/09:00am WSW 24 28 - - - - - - - 14.5 1023.0 -
14/08:50am WSW 23 26 - - - - - - - 14.5 1023.1 -
14/08:40am WSW 23 27 - - - - - - - 14.4 1023.2 -
14/08:30am WSW 22 27 - - - - - - - 14.4 1023.5 -
14/08:20am SW 20 25 - - - - - - - 14.1 1023.9 -
14/08:00am WSW 24 29 - - - - - - - 14.2 1023.3 -
14/07:30am WSW 26 31 - - - - - - - 13.9 1022.8 -
14/07:20am WSW 25 29 - - - - - - - 13.9 1023.0 -
14/07:10am WSW 22 26 - - - - - - - 13.5 1023.2 -
14/07:00am WSW 24 30 - - - - - - - 13.2 1023.0 -
14/06:50am WSW 26 31 - - - - - - - 13.3 1022.7 -
14/06:40am WSW 23 26 - - - - - - - 13.4 1022.7 -
14/06:30am WSW 23 28 - - - - - - - 13.2 1022.6 -
14/06:00am WSW 27 32 - - - - - - - 12.4 1021.9 -
14/05:50am WSW 27 31 - - - - - - - 12.2 1021.8 -
14/05:40am WSW 28 32 - - - - - - - 12.1 1021.6 -
14/05:30am WSW 25 31 - - - - - - - 12.1 1021.8 -
14/05:10am WSW 26 30 - - - - - - - 12.1 1021.8 -
14/05:00am WSW 25 30 - - - - - - - 12.1 1021.8 -
14/04:40am WSW 26 32 - - - - - - - 12.1 1021.4 -
14/04:30am WSW 29 35 - - - - - - - 12.2 1021.1 -
14/04:20am WSW 27 31 - - - - - - - 12.2 1021.1 -
14/04:10am SW 28 34 - - - - - - - 12.1 1020.9 -
14/04:00am SW 28 32 - - - - - - - 12.2 1020.9 -
14/03:50am SW 30 34 - - - - - - - 12.2 1020.6 -
14/03:40am SW 30 34 - - - - - - - 12.2 1020.5 -
14/03:30am WSW 29 36 - - - - - - - 12.2 1020.5 -
14/03:20am WSW 30 34 - - - - - - - 12.2 1020.4 -
14/03:10am WSW 30 36 - - - - - - - 12.3 1020.4 -
14/03:00am WSW 28 34 - - - - - - - 12.3 1020.4 -
14/02:50am WSW 29 35 - - - - - - - 12.4 1020.2 -
14/02:40am WSW 31 36 - - - - - - - 12.4 1020.0 -
14/02:30am WSW 31 35 - - - - - - - 12.4 1019.9 -
14/02:20am WSW 28 33 - - - - - - - 12.4 1020.2 -
14/02:10am WSW 27 33 - - - - - - - 12.5 1020.2 -
14/02:00am WSW 28 34 - - - - - - - 12.4 1020.2 -
14/01:50am WSW 28 34 - - - - - - - 12.5 1020.2 -
14/01:40am SW 29 34 - - - - - - - 12.4 1020.3 -
14/01:30am SW 29 35 - - - - - - - 12.4 1020.2 -
14/01:20am SW 28 34 - - - - - - - 12.4 1020.4 -
 
Date/Time
EST
Wind Sea
Height
m
Swell Vis
km
Cloud Weather Temp
°C
Press
hPa
Rain since
9am
mm
Dir  Spd
kts
Gust
kts
Height
m
Period
s
Dir
13/11:50pm WSW 27 31 - - - - - - - 12.8 1020.0 -
13/11:20pm WSW 27 37 - - - - - - - 13.2 1019.5 -
13/11:00pm WSW 30 37 - - - - - - - 13.5 1019.0 -
13/10:20pm WSW 32 37 - - - - - - - 13.5 1018.8 -
13/10:10pm WSW 29 36 - - - - - - - 13.6 1018.9 -
13/09:50pm WSW 32 38 - - - - - - - 13.6 1018.7 -
13/09:40pm WSW 30 36 - - - - - - - 13.6 1018.7 -
13/09:30pm WSW 32 39 - - - - - - - 13.6 1018.7 -
13/09:20pm WSW 31 37 - - - - - - - 13.7 1018.7 -
13/08:20pm WSW 30 37 - - - - - - - 14.2 1018.5 -
13/08:00pm WSW 27 35 - - - - - - - 14.2 1018.8 -
13/07:50pm WSW 27 33 - - - - - - - 14.3 1018.9 -
13/07:40pm WSW 25 31 - - - - - - - 14.2 1019.0 -
13/07:30pm WSW 23 27 - - - - - - - 14.2 1019.1 -
13/07:20pm WSW 24 28 - - - - - - - 14.0 1019.1 -
13/07:10pm WSW 21 26 - - - - - - - 13.9 1019.1 -
13/07:00pm WSW 20 25 - - - - - - - 13.7 1019.2 -
13/06:50pm W 19 22 - - - - - - - 13.4 1019.2 -
13/06:40pm W 16 22 - - - - - - - 13.2 1019.2 -
13/06:30pm W 12 17 - - - - - - - 13.1 1019.2 -
13/06:20pm W 14 20 - - - - - - - 13.0 1019.1 -
13/06:10pm W 14 18 - - - - - - - 13.0 1019.1 -
13/06:00pm W 12 15 - - - - - - - 12.9 1019.0 -
13/05:50pm WNW 12 14 - - - - - - - 12.9 1018.8 -
13/05:40pm W 11 13 - - - - - - - 12.9 1018.6 -
13/05:30pm W 12 14 - - - - - - - 12.9 1018.7 -
13/05:20pm W 12 14 - - - - - - - 12.8 1018.6 -
13/05:10pm W 12 14 - - - - - - - 12.8 1018.7 -
13/05:00pm W 12 14 - - - - - - - 12.7 1018.5 -
13/04:50pm W 12 14 - - - - - - - 12.7 1018.5 -
13/04:40pm W 12 14 - - - - - - - 12.8 1018.5 -
13/04:30pm W 13 15 - - - - - - - 12.7 1018.5 -
13/04:20pm W 13 16 - - - - - - - 12.7 1018.5 -
13/04:10pm W 14 15 - - - - - - - 12.7 1018.4 -
13/04:00pm W 14 16 - - - - - - - 12.7 1018.4 -
13/03:50pm W 12 15 - - - - - - - 12.7 1018.5 -
13/03:40pm W 12 14 - - - - - - - 12.7 1018.7 -
13/03:20pm W 11 14 - - - - - - - 12.6 1018.6 -
13/03:10pm W 13 16 - - - - - - - 12.6 1018.5 -
13/02:40pm WSW 11 13 - - - - - - - 12.9 1018.8 -
13/02:30pm WSW 10 14 - - - - - - - 13.0 1018.9 -
13/02:20pm WSW 12 14 - - - - - - - 13.0 1019.0 -
13/02:10pm WSW 12 15 - - - - - - - 13.2 1019.2 -
13/02:00pm SW 13 16 - - - - - - - 13.3 1019.6 -
13/01:20pm SW 14 17 - - - - - - - 13.6 1020.2 -
13/01:10pm SW 17 19 - - - - - - - 13.6 1020.2 -
13/12:50pm WSW 17 20 - - - - - - - 13.4 1020.2 -
13/12:40pm SW 15 20 - - - - - - - 13.4 1020.3 -
13/12:30pm SW 15 17 - - - - - - - 13.3 1020.3 -
13/12:00pm WSW 16 18 - - - - - - - 13.6 1020.5 -
13/11:50am WSW 14 17 - - - - - - - 13.5 1020.5 -
13/11:30am WSW 13 16 - - - - - - - 13.2 1020.8 -
13/11:10am WSW 14 17 - - - - - - - 13.2 1020.9 -
13/10:30am WSW 15 18 - - - - - - - 13.3 1021.4 -

Other formats

Comma delimited format used in spreadsheet applications
http://www.bom.gov.au/fwo/IDV60701/IDV60701.55039.axf

JavaScript Object Notation format (JSON) in row-major order
http://www.bom.gov.au/fwo/IDV60701/IDV60701.55039.json

Data quality

Most of these data are generated automatically and are frequently updated. Quality checks on data are not normally performed. It is possible for incorrect values to appear. Refer to information at About Latest Weather Observations and please check the disclaimer before using these data.